createdAt,value
2023-01-21T00:05:07.422Z,14.60
2023-01-21T00:08:09.025Z,14.10
2023-01-21T00:11:12.887Z,13.50
2023-01-21T00:14:14.504Z,13.20
2023-01-21T00:17:16.058Z,12.40
2023-01-21T00:20:18.039Z,13.10
2023-01-21T00:23:19.894Z,13.70
2023-01-21T00:26:21.475Z,13.30
2023-01-21T00:29:23.134Z,13.10
2023-01-21T00:32:24.825Z,15.70
2023-01-21T00:38:29.156Z,13.30
2023-01-21T00:41:30.721Z,12.60
2023-01-21T00:44:32.339Z,12.80
2023-01-21T00:47:33.934Z,12.70
2023-01-21T00:50:35.747Z,12.20
2023-01-21T00:56:39.673Z,12.00
2023-01-21T00:59:41.261Z,12.10
2023-01-21T01:02:42.862Z,11.30
2023-01-21T01:08:46.869Z,11.20
2023-01-21T01:11:48.519Z,11.70
2023-01-21T01:14:50.115Z,11.50
2023-01-21T01:17:51.918Z,9.70
2023-01-21T01:23:55.103Z,11.80
2023-01-21T01:26:56.755Z,12.50
2023-01-21T01:29:58.372Z,11.90
2023-01-21T01:33:00.203Z,13.10
2023-01-21T01:36:07.250Z,14.10
2023-01-21T01:39:08.871Z,18.10
2023-01-21T01:42:15.295Z,16.70
2023-01-21T01:45:21.375Z,17.10
2023-01-21T01:48:29.095Z,16.80
2023-01-21T01:51:46.764Z,15.50
2023-01-21T01:54:50.449Z,15.40
2023-01-21T01:57:53.905Z,16.70
2023-01-21T02:00:55.480Z,15.10
2023-01-21T02:03:57.683Z,15.30
2023-01-21T02:07:00.152Z,13.70
2023-01-21T02:10:02.624Z,14.30
2023-01-21T02:13:04.666Z,13.40
2023-01-21T02:16:27.979Z,15.00
2023-01-21T02:20:21.244Z,12.30
2023-01-21T02:23:42.970Z,13.10
2023-01-21T02:27:06.698Z,12.10
2023-01-21T02:30:29.773Z,13.30
2023-01-21T02:33:50.122Z,12.40
2023-01-21T02:37:13.885Z,13.10
2023-01-21T02:40:31.689Z,12.10
2023-01-21T02:43:42.896Z,12.00
2023-01-21T02:47:05.793Z,11.90
2023-01-21T02:50:20.479Z,11.60
2023-01-21T02:53:28.359Z,13.70
2023-01-21T02:56:29.907Z,12.20
2023-01-21T02:59:31.991Z,13.30
2023-01-21T03:02:40.890Z,13.60
2023-01-21T03:05:57.532Z,13.60
2023-01-21T03:09:05.637Z,13.40
2023-01-21T03:12:10.121Z,12.40
2023-01-21T03:15:20.318Z,12.20
2023-01-21T03:18:30.112Z,12.00
2023-01-21T03:21:32.775Z,12.30
2023-01-21T03:24:34.588Z,12.60
2023-01-21T03:27:39.457Z,12.40
2023-01-21T03:30:43.416Z,13.40
2023-01-21T03:33:47.285Z,11.50
2023-01-21T03:36:53.863Z,11.60
2023-01-21T03:40:04.725Z,12.80
2023-01-21T03:43:06.434Z,12.40
2023-01-21T03:46:32.554Z,13.10
2023-01-21T03:50:06.648Z,12.90
2023-01-21T03:53:08.348Z,11.70
2023-01-21T03:56:09.893Z,10.70
2023-01-21T03:59:11.889Z,10.80
2023-01-21T04:02:13.581Z,11.30
2023-01-21T04:05:18.246Z,9.40
2023-01-21T04:08:19.760Z,9.50
2023-01-21T04:11:21.349Z,10.00
2023-01-21T04:14:22.969Z,10.20
2023-01-21T04:17:24.576Z,8.60
2023-01-21T04:20:26.490Z,9.60
2023-01-21T04:23:28.161Z,9.80
2023-01-21T04:26:29.791Z,8.40
2023-01-21T04:29:31.405Z,8.40
2023-01-21T04:32:32.960Z,8.70
2023-01-21T04:35:36.107Z,8.30
2023-01-21T04:38:37.659Z,8.00
2023-01-21T04:41:39.708Z,8.60
2023-01-21T04:44:41.313Z,8.20
2023-01-21T04:47:43.748Z,7.90
2023-01-21T04:50:46.519Z,8.70
2023-01-21T04:53:48.172Z,7.50
2023-01-21T04:56:49.788Z,7.80
2023-01-21T04:59:51.452Z,7.50
2023-01-21T05:02:53.230Z,7.60
2023-01-21T05:05:54.772Z,8.00
2023-01-21T05:08:56.600Z,7.70
2023-01-21T05:11:58.129Z,7.20
2023-01-21T05:14:59.705Z,7.90
2023-01-21T05:18:01.311Z,8.50
2023-01-21T05:21:03.109Z,8.20
2023-01-21T05:27:06.318Z,8.50
2023-01-21T05:30:09.159Z,8.00
2023-01-21T05:33:10.803Z,7.60
2023-01-21T05:36:12.808Z,8.40
2023-01-21T05:39:14.447Z,7.60
2023-01-21T05:42:16.072Z,7.80
2023-01-21T05:45:17.911Z,7.80
2023-01-21T05:51:21.066Z,7.60
2023-01-21T05:54:22.647Z,7.60
2023-01-21T05:57:24.222Z,8.40
2023-01-21T06:00:26.069Z,8.20
2023-01-21T06:03:27.684Z,7.40
2023-01-21T06:06:29.348Z,8.40
2023-01-21T06:09:30.925Z,8.00
2023-01-21T06:12:32.592Z,8.00
2023-01-21T06:15:34.257Z,8.30
2023-01-21T06:18:36.055Z,7.00
2023-01-21T06:21:37.815Z,6.90
2023-01-21T06:24:39.311Z,7.30
2023-01-21T06:27:40.900Z,7.30
2023-01-21T06:30:42.556Z,6.90
2023-01-21T06:33:44.067Z,7.60
2023-01-21T06:36:45.730Z,6.70
2023-01-21T06:39:47.340Z,6.90
2023-01-21T06:42:49.775Z,7.50
2023-01-21T06:45:51.538Z,8.00
2023-01-21T06:51:54.793Z,8.20
2023-01-21T06:54:56.449Z,8.40
2023-01-21T06:57:57.948Z,9.00
2023-01-21T07:00:59.677Z,9.50
2023-01-21T07:04:01.724Z,7.70
2023-01-21T07:07:03.319Z,7.60
2023-01-21T07:10:05.376Z,8.30
2023-01-21T07:13:06.912Z,7.60
2023-01-21T07:16:08.967Z,11.20
2023-01-21T07:19:11.845Z,11.20
2023-01-21T07:22:13.557Z,9.40
2023-01-21T07:28:17.282Z,9.70
2023-01-21T07:34:20.549Z,8.80
2023-01-21T07:37:22.440Z,9.00
2023-01-21T07:40:24.083Z,8.90
2023-01-21T07:43:25.785Z,9.50
2023-01-21T07:49:28.952Z,10.60
2023-01-21T07:52:31.907Z,11.30
2023-01-21T07:55:33.586Z,12.10
2023-01-21T07:58:35.644Z,11.30
2023-01-21T08:04:39.016Z,11.90
2023-01-21T08:07:40.646Z,10.80
2023-01-21T08:10:42.201Z,10.10
2023-01-21T08:13:43.772Z,9.30
2023-01-21T08:16:45.370Z,8.10
2023-01-21T08:19:46.884Z,8.20
2023-01-21T08:22:48.472Z,7.70
2023-01-21T08:25:50.270Z,8.50
2023-01-21T08:31:57.775Z,7.40
2023-01-21T08:34:59.505Z,7.60
2023-01-21T08:38:02.009Z,8.10
2023-01-21T08:41:05.557Z,7.80
2023-01-21T08:44:07.792Z,7.70
2023-01-21T08:47:09.311Z,7.70
2023-01-21T08:50:11.127Z,7.20
2023-01-21T08:56:14.243Z,7.80
2023-01-21T08:59:15.859Z,7.80
2023-01-21T09:05:20.151Z,11.90
2023-01-21T09:08:21.810Z,10.60
2023-01-21T09:14:25.081Z,12.20
2023-01-21T09:17:27.048Z,12.00
2023-01-21T09:20:28.763Z,11.90
2023-01-21T09:23:30.998Z,12.20
2023-01-21T09:26:32.775Z,11.90
2023-01-21T09:32:35.965Z,12.80
2023-01-21T09:35:37.793Z,12.60
2023-01-21T09:41:55.392Z,12.00
2023-01-21T09:44:57.773Z,11.50
2023-01-21T09:47:59.968Z,12.40
2023-01-21T09:51:06.317Z,11.20
2023-01-21T09:54:17.439Z,12.40
2023-01-21T09:57:37.618Z,14.50
2023-01-21T10:00:45.793Z,13.40
2023-01-21T10:03:54.894Z,13.00
2023-01-21T10:06:59.047Z,12.70
2023-01-21T10:10:19.116Z,12.00
2023-01-21T10:13:38.618Z,12.40
2023-01-21T10:16:52.578Z,12.20
2023-01-21T10:20:17.917Z,12.20
2023-01-21T10:23:31.558Z,11.50
2023-01-21T10:26:35.098Z,12.90
2023-01-21T10:29:40.180Z,12.40
2023-01-21T10:32:42.617Z,12.60
2023-01-21T10:36:02.867Z,12.30
2023-01-21T10:39:34.759Z,11.80
2023-01-21T10:43:09.235Z,11.90
2023-01-21T10:46:28.031Z,11.70
2023-01-21T10:50:03.564Z,12.20
2023-01-21T10:53:22.647Z,11.90
2023-01-21T10:56:39.809Z,20.20
2023-01-21T10:59:42.128Z,12.80
2023-01-21T11:02:44.345Z,12.30
2023-01-21T11:05:46.100Z,12.10
2023-01-21T11:08:59.900Z,12.00
2023-01-21T11:12:01.763Z,12.60
2023-01-21T11:15:14.288Z,12.60
2023-01-21T11:18:41.718Z,12.40
2023-01-21T11:22:17.840Z,13.70
2023-01-21T11:25:40.419Z,15.30
2023-01-21T11:28:42.182Z,14.60
2023-01-21T11:31:45.681Z,12.80
2023-01-21T11:34:49.851Z,14.20
2023-01-21T11:37:51.504Z,16.10
2023-01-21T11:44:27.125Z,15.70
2023-01-21T11:47:44.201Z,14.90
2023-01-21T11:50:45.896Z,14.60
2023-01-21T11:57:02.264Z,16.40
2023-01-21T12:00:20.380Z,16.90
2023-01-21T12:03:26.114Z,17.60
2023-01-21T12:06:29.153Z,16.80
2023-01-21T12:09:31.265Z,16.50
2023-01-21T12:12:52.090Z,17.70
2023-01-21T12:16:14.010Z,16.90
2023-01-21T12:19:19.379Z,17.30
2023-01-21T12:22:43.865Z,17.30
2023-01-21T12:25:52.098Z,16.50
2023-01-21T12:29:27.953Z,16.60
2023-01-21T12:32:32.120Z,18.10
2023-01-21T12:35:42.241Z,18.30
2023-01-21T12:38:47.116Z,17.80
2023-01-21T12:41:58.299Z,17.50
2023-01-21T12:45:32.591Z,17.60
2023-01-21T12:48:42.623Z,19.00
2023-01-21T12:51:46.913Z,18.40
2023-01-21T12:55:22.216Z,18.90
2023-01-21T12:58:26.555Z,20.10
2023-01-21T13:01:52.860Z,19.50
2023-01-21T13:05:29.723Z,19.90
2023-01-21T13:08:46.011Z,19.70
2023-01-21T13:11:53.195Z,21.10
2023-01-21T13:15:03.170Z,24.00
2023-01-21T13:18:11.916Z,21.30
2023-01-21T13:21:40.375Z,17.90
2023-01-21T13:24:54.958Z,19.50
2023-01-21T13:28:24.197Z,21.40
2023-01-21T13:31:32.743Z,18.50
2023-01-21T13:34:41.462Z,19.30
2023-01-21T13:38:05.167Z,18.60
2023-01-21T13:41:20.356Z,19.40
2023-01-21T13:44:40.940Z,21.90
2023-01-21T13:48:05.240Z,21.10
2023-01-21T13:51:15.792Z,22.30
2023-01-21T13:54:32.814Z,22.40
2023-01-21T13:58:00.465Z,25.40
2023-01-21T14:01:09.758Z,24.20
2023-01-21T14:04:15.905Z,25.60
2023-01-21T14:07:38.474Z,24.50
2023-01-21T14:10:48.624Z,26.80
2023-01-21T14:14:39.603Z,26.80
2023-01-21T14:17:56.668Z,29.10
2023-01-21T14:21:25.227Z,31.20
2023-01-21T14:24:39.076Z,30.60
2023-01-21T14:28:00.232Z,39.20
2023-01-21T14:31:09.622Z,35.30
2023-01-21T14:34:31.364Z,31.30
2023-01-21T14:37:41.210Z,30.40
2023-01-21T14:40:48.177Z,30.60
2023-01-21T14:43:52.219Z,28.10
2023-01-21T14:47:20.354Z,35.30
2023-01-21T14:50:45.703Z,36.70
2023-01-21T14:53:48.203Z,29.60
2023-01-21T14:56:54.113Z,29.40
2023-01-21T15:00:30.111Z,29.80
2023-01-21T15:03:31.740Z,26.00
2023-01-21T15:06:37.953Z,25.00
2023-01-21T15:09:43.781Z,24.80
2023-01-21T15:13:06.912Z,23.70
2023-01-21T15:16:17.622Z,26.90
2023-01-21T15:19:25.315Z,25.40
2023-01-21T15:22:41.317Z,25.20
2023-01-21T15:26:07.870Z,25.40
2023-01-21T15:29:38.932Z,27.00
2023-01-21T15:32:45.887Z,28.30
2023-01-21T15:35:47.781Z,31.60
2023-01-21T15:42:18.214Z,31.80
2023-01-21T15:45:38.273Z,32.70
2023-01-21T15:49:14.243Z,31.90
2023-01-21T15:52:49.774Z,33.70
2023-01-21T15:56:02.725Z,33.70
2023-01-21T15:59:22.509Z,35.80
2023-01-21T16:02:27.305Z,36.70
2023-01-21T16:05:58.220Z,36.60
2023-01-21T16:09:05.347Z,35.50
2023-01-21T16:12:39.133Z,39.80
2023-01-21T16:15:55.819Z,44.80
2023-01-21T16:19:20.407Z,35.50
2023-01-21T16:22:28.432Z,34.30
2023-01-21T16:25:30.087Z,33.00
2023-01-21T16:28:47.914Z,35.40
2023-01-21T16:31:55.061Z,31.90
2023-01-21T16:34:56.678Z,38.00
2023-01-21T16:37:59.316Z,39.50
2023-01-21T16:41:07.285Z,43.10
2023-01-21T16:44:15.329Z,54.10
2023-01-21T16:47:35.464Z,55.20
2023-01-21T16:50:37.065Z,50.40
2023-01-21T16:53:38.661Z,46.40
2023-01-21T16:56:47.984Z,38.50
2023-01-21T16:59:49.648Z,39.20
2023-01-21T17:05:55.618Z,66.70
2023-01-21T17:09:00.286Z,48.10
2023-01-21T17:12:06.040Z,45.40
2023-01-21T17:15:17.579Z,43.20
2023-01-21T17:18:22.062Z,42.10
2023-01-21T17:21:36.301Z,74.50
2023-01-21T17:24:39.629Z,77.90
2023-01-21T17:27:42.803Z,78.90
2023-01-21T17:30:44.600Z,69.40
2023-01-21T17:36:52.607Z,62.90
2023-01-21T17:39:54.194Z,63.30
2023-01-21T17:42:56.941Z,61.10
2023-01-21T17:45:59.010Z,69.70
2023-01-21T17:52:05.565Z,68.30
2023-01-21T17:55:34.652Z,74.40
2023-01-21T17:58:49.942Z,85.70
2023-01-21T18:01:54.955Z,70.20
2023-01-21T18:04:56.608Z,68.80
2023-01-21T18:07:58.560Z,68.50
2023-01-21T18:11:00.144Z,73.00
2023-01-21T18:14:01.963Z,68.70
2023-01-21T18:20:15.456Z,125.60
2023-01-21T18:23:17.316Z,95.00
2023-01-21T18:26:30.274Z,75.40
2023-01-21T18:29:31.928Z,64.80
2023-01-21T18:32:33.521Z,70.20
2023-01-21T18:35:35.226Z,50.50
2023-01-21T18:38:36.872Z,45.20
2023-01-21T18:41:38.468Z,175.40
2023-01-21T18:44:40.333Z,80.20
2023-01-21T18:47:42.212Z,91.10
2023-01-21T18:53:45.283Z,93.70
2023-01-21T18:56:47.105Z,55.00
2023-01-21T19:02:51.563Z,82.60
2023-01-21T19:05:53.212Z,56.20
2023-01-21T19:08:54.862Z,58.90
2023-01-21T19:14:58.268Z,50.80
2023-01-21T19:18:00.030Z,42.90
2023-01-21T19:21:01.679Z,48.00
2023-01-21T19:24:03.651Z,51.70
2023-01-21T19:27:05.372Z,53.60
2023-01-21T19:33:25.112Z,56.90
2023-01-21T19:36:26.812Z,54.90
2023-01-21T19:42:29.871Z,58.20
2023-01-21T19:45:31.490Z,53.70
2023-01-21T19:48:33.470Z,61.80
2023-01-21T19:51:35.316Z,71.90
2023-01-21T19:57:38.888Z,66.70
2023-01-21T20:00:40.560Z,66.50
2023-01-21T20:03:54.608Z,73.80
2023-01-21T20:07:01.156Z,69.30
2023-01-21T20:10:12.869Z,71.30
2023-01-21T20:16:18.853Z,69.60
2023-01-21T20:19:21.402Z,62.50
2023-01-21T20:22:23.157Z,63.60
2023-01-21T20:25:26.660Z,62.30
2023-01-21T20:28:38.357Z,62.20
2023-01-21T20:31:40.016Z,67.60
2023-01-21T20:34:41.640Z,67.40
2023-01-21T20:37:45.085Z,65.00
2023-01-21T20:40:46.591Z,61.80
2023-01-21T20:43:48.262Z,57.10
2023-01-21T20:46:49.881Z,56.40
2023-01-21T20:49:51.395Z,59.50
2023-01-21T20:52:53.755Z,56.40
2023-01-21T20:55:55.368Z,60.90
2023-01-21T20:58:56.974Z,58.80
2023-01-21T21:01:58.632Z,57.50
2023-01-21T21:05:00.284Z,63.00
2023-01-21T21:08:02.367Z,56.60
2023-01-21T21:11:04.103Z,56.70
2023-01-21T21:14:05.828Z,58.60
2023-01-21T21:17:11.791Z,60.60
2023-01-21T21:20:23.220Z,80.00
2023-01-21T21:23:24.796Z,74.20
2023-01-21T21:26:28.010Z,74.70
2023-01-21T21:29:29.550Z,70.20
2023-01-21T21:32:31.339Z,64.80
2023-01-21T21:35:36.936Z,61.90
2023-01-21T21:38:38.506Z,69.80
2023-01-21T21:41:40.249Z,76.00
2023-01-21T21:44:45.133Z,76.30
2023-01-21T21:47:46.861Z,71.90
2023-01-21T21:50:58.107Z,69.70
2023-01-21T21:53:59.712Z,68.00
2023-01-21T21:57:01.302Z,65.50
2023-01-21T22:00:03.137Z,65.20
2023-01-21T22:06:07.360Z,61.30
2023-01-21T22:09:09.162Z,62.80
2023-01-21T22:12:10.913Z,64.70
2023-01-21T22:15:12.608Z,63.60
2023-01-21T22:18:14.288Z,74.90
2023-01-21T22:21:21.351Z,102.30
2023-01-21T22:24:22.983Z,116.10
2023-01-21T22:27:24.771Z,111.50
2023-01-21T22:33:27.887Z,90.20
2023-01-21T22:36:30.928Z,90.60
2023-01-21T22:39:32.520Z,95.40
2023-01-21T22:42:34.110Z,100.20
2023-01-21T22:45:35.894Z,106.70
2023-01-21T22:51:38.943Z,79.30
2023-01-21T22:54:40.648Z,77.50
2023-01-21T22:57:42.289Z,82.70
2023-01-21T23:00:43.811Z,105.20
2023-01-21T23:03:45.633Z,108.10
2023-01-21T23:09:49.311Z,74.30
2023-01-21T23:12:50.921Z,72.80
2023-01-21T23:15:52.742Z,67.40
2023-01-21T23:21:55.890Z,65.00
2023-01-21T23:24:57.549Z,68.60
2023-01-21T23:31:08.780Z,64.50
2023-01-21T23:34:12.946Z,69.20
2023-01-21T23:37:14.609Z,65.60
2023-01-21T23:40:16.568Z,61.00
2023-01-21T23:43:18.499Z,59.00
2023-01-21T23:46:20.337Z,57.70
2023-01-21T23:49:21.974Z,60.80
2023-01-21T23:52:23.752Z,55.40
2023-01-21T23:55:25.425Z,56.10
2023-01-21T23:58:27.115Z,54.70
